createdAt,value
2023-02-19T00:01:48.666Z,3.50
2023-02-19T00:04:19.491Z,2.58
2023-02-19T00:06:48.514Z,3.85
2023-02-19T00:09:18.208Z,2.90
2023-02-19T00:11:47.620Z,3.00
2023-02-19T00:14:17.149Z,3.55
2023-02-19T00:16:45.358Z,3.00
2023-02-19T00:19:15.104Z,4.47
2023-02-19T00:21:44.773Z,5.35
2023-02-19T00:24:14.171Z,4.82
2023-02-19T00:26:43.489Z,5.38
2023-02-19T00:29:14.503Z,6.05
2023-02-19T00:31:43.126Z,6.40
2023-02-19T00:34:12.196Z,4.90
2023-02-19T00:36:41.916Z,4.97
2023-02-19T00:39:15.285Z,4.18
2023-02-19T00:41:43.950Z,3.53
2023-02-19T00:44:13.041Z,3.38
2023-02-19T00:46:42.965Z,1.52
2023-02-19T00:49:16.382Z,2.90
2023-02-19T00:51:44.597Z,2.50
2023-02-19T00:54:15.027Z,2.15
2023-02-19T00:56:43.342Z,2.17
2023-02-19T00:59:11.807Z,2.33
2023-02-19T01:01:40.098Z,2.70
2023-02-19T01:04:08.248Z,3.17
2023-02-19T01:06:36.686Z,2.65
2023-02-19T01:09:05.446Z,3.30
2023-02-19T01:11:35.053Z,2.97
2023-02-19T01:14:03.569Z,2.60
2023-02-19T01:16:32.294Z,3.15
2023-02-19T01:19:00.805Z,3.22
2023-02-19T01:21:30.510Z,2.92
2023-02-19T01:23:59.246Z,3.15
2023-02-19T01:26:29.052Z,3.40
2023-02-19T01:28:58.692Z,2.65
2023-02-19T01:31:27.456Z,1.80
2023-02-19T01:33:57.390Z,3.22
2023-02-19T01:36:25.671Z,1.90
2023-02-19T01:38:53.830Z,2.65
2023-02-19T01:41:24.151Z,2.45
2023-02-19T01:44:01.994Z,2.42
2023-02-19T01:46:32.572Z,2.75
2023-02-19T01:49:03.927Z,2.70
2023-02-19T01:51:33.330Z,2.53
2023-02-19T01:54:04.447Z,2.90
2023-02-19T01:56:33.749Z,2.67
2023-02-19T01:59:03.495Z,2.83
2023-02-19T02:01:32.440Z,2.45
2023-02-19T02:04:01.189Z,3.20
2023-02-19T02:06:31.388Z,3.17
2023-02-19T02:09:17.914Z,3.33
2023-02-19T02:11:48.918Z,2.85
2023-02-19T02:14:19.570Z,2.60
2023-02-19T02:16:56.708Z,3.03
2023-02-19T02:19:51.951Z,3.50
2023-02-19T02:22:22.349Z,2.85
2023-02-19T02:25:17.930Z,4.03
2023-02-19T02:27:54.994Z,3.88
2023-02-19T02:30:31.594Z,4.43
2023-02-19T02:33:05.786Z,4.75
2023-02-19T02:35:35.684Z,5.03
2023-02-19T02:38:07.361Z,4.72
2023-02-19T02:40:35.449Z,5.57
2023-02-19T02:43:03.722Z,5.60
2023-02-19T02:45:37.225Z,5.53
2023-02-19T02:48:14.741Z,5.70
2023-02-19T02:50:47.313Z,6.10
2023-02-19T02:53:37.704Z,6.07
2023-02-19T02:56:06.414Z,6.68
2023-02-19T02:58:35.343Z,6.03
2023-02-19T03:01:25.911Z,5.03
2023-02-19T03:03:57.311Z,5.68
2023-02-19T03:06:27.176Z,4.90
2023-02-19T03:08:57.972Z,4.30
2023-02-19T03:11:43.238Z,3.72
2023-02-19T03:14:33.124Z,3.78
2023-02-19T03:17:24.246Z,3.28
2023-02-19T03:19:57.408Z,3.03
2023-02-19T03:22:27.779Z,3.08
2023-02-19T03:25:17.543Z,2.67
2023-02-19T03:27:47.794Z,3.05
2023-02-19T03:30:20.126Z,2.85
2023-02-19T03:32:52.764Z,3.20
2023-02-19T03:35:23.498Z,3.53
2023-02-19T03:37:55.313Z,3.40
2023-02-19T03:40:26.455Z,3.55
2023-02-19T03:43:01.423Z,3.28
2023-02-19T03:45:35.120Z,3.42
2023-02-19T03:48:26.143Z,3.70
2023-02-19T03:51:03.369Z,3.70
2023-02-19T03:53:35.628Z,4.20
2023-02-19T03:56:08.812Z,4.45
2023-02-19T03:58:41.921Z,5.95
2023-02-19T04:01:12.195Z,5.63
2023-02-19T04:03:44.729Z,5.90
2023-02-19T04:06:15.946Z,6.03
2023-02-19T04:08:48.101Z,6.80
2023-02-19T04:11:17.154Z,6.88
2023-02-19T04:13:47.991Z,7.30
2023-02-19T04:16:20.405Z,6.65
2023-02-19T04:18:52.585Z,6.80
2023-02-19T04:21:21.800Z,6.55
2023-02-19T04:23:49.809Z,6.90
2023-02-19T04:26:18.820Z,8.77
2023-02-19T04:28:48.116Z,8.75
2023-02-19T04:31:16.483Z,8.50
2023-02-19T04:33:44.449Z,8.82
2023-02-19T04:36:14.175Z,9.50
2023-02-19T04:38:42.135Z,9.93
2023-02-19T04:41:10.790Z,10.38
2023-02-19T04:43:39.010Z,7.07
2023-02-19T04:46:07.253Z,10.63
2023-02-19T04:48:35.232Z,10.00
2023-02-19T04:51:06.743Z,9.48
2023-02-19T04:53:36.804Z,11.10
2023-02-19T04:56:09.082Z,11.95
2023-02-19T04:58:37.210Z,12.13
2023-02-19T05:01:06.057Z,12.10
2023-02-19T05:03:35.029Z,11.23
2023-02-19T05:06:04.227Z,11.50
2023-02-19T05:08:32.226Z,11.77
2023-02-19T05:11:02.192Z,11.35
2023-02-19T05:13:30.369Z,10.88
2023-02-19T05:16:00.092Z,10.90
2023-02-19T05:18:28.486Z,11.27
2023-02-19T05:20:57.931Z,11.57
2023-02-19T05:23:26.349Z,11.98
2023-02-19T05:25:54.619Z,12.30
2023-02-19T05:28:28.681Z,12.82
2023-02-19T05:30:58.097Z,14.32
2023-02-19T05:33:27.257Z,15.00
2023-02-19T05:35:56.581Z,13.55
2023-02-19T05:38:25.443Z,15.13
2023-02-19T05:40:53.954Z,13.98
2023-02-19T05:43:23.263Z,14.50
2023-02-19T05:45:51.594Z,15.20
2023-02-19T05:48:19.535Z,15.52
2023-02-19T05:50:47.710Z,16.02
2023-02-19T05:53:15.766Z,16.05
2023-02-19T05:55:43.943Z,15.38
2023-02-19T05:58:11.898Z,17.17
2023-02-19T06:00:41.455Z,16.50
2023-02-19T06:03:09.446Z,17.60
2023-02-19T06:05:38.308Z,17.90
2023-02-19T06:08:06.580Z,17.55
2023-02-19T06:10:36.532Z,18.15
2023-02-19T06:13:04.543Z,17.75
2023-02-19T06:15:32.704Z,16.05
2023-02-19T06:18:02.489Z,15.60
2023-02-19T06:20:30.921Z,15.07
2023-02-19T06:22:58.982Z,12.25
2023-02-19T06:25:27.237Z,13.35
2023-02-19T06:27:55.146Z,13.60
2023-02-19T06:30:23.339Z,12.43
2023-02-19T06:32:53.382Z,13.15
2023-02-19T06:35:23.195Z,13.80
2023-02-19T06:37:51.145Z,13.73
2023-02-19T06:40:19.658Z,13.77
2023-02-19T06:42:47.563Z,15.43
2023-02-19T06:45:16.027Z,14.80
2023-02-19T06:47:44.173Z,18.08
2023-02-19T06:50:12.609Z,17.25
2023-02-19T06:52:41.855Z,17.23
2023-02-19T06:55:10.402Z,17.75
2023-02-19T06:57:38.390Z,15.80
2023-02-19T07:00:07.585Z,16.77
2023-02-19T07:02:35.671Z,18.25
2023-02-19T07:05:03.922Z,18.60
2023-02-19T07:07:31.862Z,23.77
2023-02-19T07:10:01.390Z,29.88
2023-02-19T07:12:29.311Z,23.52
2023-02-19T07:14:57.465Z,23.40
2023-02-19T07:17:25.374Z,21.15
2023-02-19T07:19:53.539Z,21.60
2023-02-19T07:22:21.432Z,21.77
2023-02-19T07:24:49.703Z,27.15
2023-02-19T07:27:19.114Z,25.73
2023-02-19T07:29:47.385Z,24.30
2023-02-19T07:32:15.316Z,25.77
2023-02-19T07:34:43.690Z,23.73
2023-02-19T07:37:11.639Z,25.40
2023-02-19T07:39:39.816Z,23.25
2023-02-19T07:42:07.941Z,28.15
2023-02-19T07:44:37.463Z,25.65
2023-02-19T07:47:05.519Z,25.08
2023-02-19T07:49:33.850Z,27.10
2023-02-19T07:52:01.892Z,27.33
2023-02-19T07:54:30.335Z,28.40
2023-02-19T07:56:58.516Z,28.38
2023-02-19T07:59:26.853Z,28.42
2023-02-19T08:02:13.928Z,25.02
2023-02-19T08:04:42.619Z,21.77
2023-02-19T08:07:10.563Z,18.48
2023-02-19T08:09:38.732Z,14.38
2023-02-19T08:12:24.926Z,13.63
2023-02-19T08:14:53.199Z,14.38
2023-02-19T08:17:22.572Z,12.32
2023-02-19T08:19:50.781Z,12.00
2023-02-19T08:22:18.703Z,13.40
2023-02-19T08:24:46.937Z,11.60
2023-02-19T08:27:14.952Z,11.65
2023-02-19T08:29:43.193Z,10.00
2023-02-19T08:32:11.141Z,11.18
2023-02-19T08:34:40.769Z,9.43
2023-02-19T08:37:08.748Z,7.32
2023-02-19T08:39:37.082Z,6.18
2023-02-19T08:42:05.182Z,4.78
2023-02-19T08:44:34.176Z,5.30
2023-02-19T08:47:02.409Z,5.75
2023-02-19T08:49:30.682Z,15.93
2023-02-19T08:51:59.975Z,4.85
2023-02-19T08:54:28.148Z,10.55
2023-02-19T08:56:56.376Z,7.90
2023-02-19T08:59:24.558Z,18.80
2023-02-19T09:01:52.954Z,4.60
2023-02-19T09:04:21.180Z,4.88
2023-02-19T09:06:49.151Z,6.38
2023-02-19T09:09:18.762Z,4.03
2023-02-19T09:11:49.178Z,3.72
2023-02-19T09:14:17.475Z,3.78
2023-02-19T09:16:45.418Z,3.50
2023-02-19T09:19:13.654Z,4.15
2023-02-19T09:21:41.651Z,4.20
2023-02-19T09:24:10.308Z,4.30
2023-02-19T09:26:39.583Z,4.10
2023-02-19T09:29:07.813Z,5.88
2023-02-19T09:31:36.051Z,5.95
2023-02-19T09:34:04.286Z,5.88
2023-02-19T09:36:33.425Z,6.72
2023-02-19T09:39:01.874Z,7.50
2023-02-19T09:41:32.396Z,7.78
2023-02-19T09:44:03.709Z,9.02
2023-02-19T09:46:33.523Z,7.85
2023-02-19T09:49:05.995Z,8.95
2023-02-19T09:51:35.827Z,9.57
2023-02-19T09:54:05.778Z,10.90
2023-02-19T09:56:34.092Z,10.63
2023-02-19T09:59:04.010Z,10.40
2023-02-19T10:01:34.656Z,11.73
2023-02-19T10:04:02.937Z,12.35
2023-02-19T10:06:34.092Z,8.98
2023-02-19T10:09:14.573Z,8.37
2023-02-19T10:11:43.168Z,8.20
2023-02-19T10:14:17.568Z,8.63
2023-02-19T10:16:47.262Z,7.70
2023-02-19T10:19:16.127Z,7.63
2023-02-19T10:21:44.246Z,7.28
2023-02-19T10:24:17.943Z,5.57
2023-02-19T10:26:46.194Z,6.75
2023-02-19T10:29:15.701Z,5.85
2023-02-19T10:31:43.716Z,5.93
2023-02-19T10:34:20.520Z,6.30
2023-02-19T10:36:50.824Z,7.07
2023-02-19T10:39:39.920Z,6.68
2023-02-19T10:42:15.507Z,7.55
2023-02-19T10:44:46.484Z,5.88
2023-02-19T10:47:18.503Z,4.93
2023-02-19T10:52:20.512Z,5.72
2023-02-19T10:54:51.759Z,6.80
2023-02-19T10:57:30.031Z,6.00
2023-02-19T11:00:02.098Z,6.57
2023-02-19T11:02:31.583Z,7.05
2023-02-19T11:05:19.875Z,3.67
2023-02-19T11:07:50.320Z,2.40
2023-02-19T11:10:25.174Z,2.67
2023-02-19T11:12:54.581Z,3.53
2023-02-19T11:15:27.330Z,2.97
2023-02-19T11:18:00.753Z,3.42
2023-02-19T11:20:29.694Z,4.97
2023-02-19T11:22:59.514Z,5.05
2023-02-19T11:25:27.955Z,5.40
2023-02-19T11:28:02.643Z,4.70
2023-02-19T11:30:38.773Z,3.88
2023-02-19T11:33:28.247Z,6.00
2023-02-19T11:36:05.467Z,4.13
2023-02-19T11:38:33.442Z,4.43
2023-02-19T11:41:06.191Z,5.32
2023-02-19T11:43:53.464Z,5.03
2023-02-19T11:46:31.597Z,4.28
2023-02-19T11:49:08.872Z,5.53
2023-02-19T11:51:52.425Z,5.78
2023-02-19T11:54:31.743Z,5.03
2023-02-19T11:57:07.143Z,3.60
2023-02-19T11:59:39.339Z,3.40
2023-02-19T12:02:37.997Z,3.95
2023-02-19T12:05:34.883Z,3.03
2023-02-19T12:08:37.324Z,2.40
2023-02-19T12:11:16.528Z,2.97
2023-02-19T12:14:03.239Z,3.30
2023-02-19T12:16:34.447Z,2.70
2023-02-19T12:19:29.647Z,3.38
2023-02-19T12:22:12.764Z,3.03
2023-02-19T12:25:12.128Z,4.03
2023-02-19T12:27:48.251Z,5.25
2023-02-19T12:30:31.730Z,5.38
2023-02-19T12:33:30.063Z,6.40
2023-02-19T12:36:05.909Z,6.47
2023-02-19T12:38:39.367Z,7.85
2023-02-19T12:41:19.845Z,9.02
2023-02-19T12:43:54.186Z,9.07
2023-02-19T12:46:26.548Z,8.95
2023-02-19T12:49:00.068Z,9.00
2023-02-19T12:51:34.096Z,8.05
2023-02-19T12:54:06.020Z,11.20
2023-02-19T12:56:37.708Z,11.68
2023-02-19T12:59:10.864Z,7.97
2023-02-19T13:01:44.269Z,8.27
2023-02-19T13:04:22.970Z,8.10
2023-02-19T13:06:56.586Z,7.93
2023-02-19T13:09:29.231Z,7.75
2023-02-19T13:12:00.926Z,8.02
2023-02-19T13:14:33.525Z,7.50
2023-02-19T13:17:04.254Z,9.15
2023-02-19T13:19:32.669Z,7.95
2023-02-19T13:22:24.357Z,8.93
2023-02-19T13:24:52.635Z,9.23
2023-02-19T13:27:51.170Z,7.97
2023-02-19T13:30:30.641Z,7.18
2023-02-19T13:33:07.219Z,7.10
2023-02-19T13:36:06.036Z,5.05
2023-02-19T13:38:38.654Z,6.32
2023-02-19T13:41:06.999Z,6.75
2023-02-19T13:43:38.746Z,5.70
2023-02-19T13:46:08.773Z,5.68
2023-02-19T13:48:38.422Z,5.50
2023-02-19T13:51:49.300Z,5.70
2023-02-19T13:54:27.288Z,8.85
2023-02-19T13:57:20.650Z,5.97
2023-02-19T13:59:49.215Z,7.35
2023-02-19T14:02:35.462Z,9.65
2023-02-19T14:05:07.478Z,5.72
2023-02-19T14:07:51.532Z,6.30
2023-02-19T14:10:57.602Z,5.28
2023-02-19T14:14:10.294Z,5.85
2023-02-19T14:17:08.108Z,7.53
2023-02-19T14:19:54.101Z,5.65
2023-02-19T14:23:01.532Z,4.80
2023-02-19T14:25:38.212Z,4.32
2023-02-19T14:28:22.810Z,4.65
2023-02-19T14:30:52.448Z,4.55
2023-02-19T14:33:24.683Z,3.45
2023-02-19T14:35:55.999Z,3.15
2023-02-19T14:38:27.167Z,4.65
2023-02-19T14:40:55.683Z,4.15
2023-02-19T14:43:25.909Z,3.70
2023-02-19T14:45:57.045Z,4.28
2023-02-19T14:48:28.994Z,5.37
2023-02-19T14:50:59.720Z,5.47
2023-02-19T14:53:29.183Z,5.22
2023-02-19T14:55:58.331Z,4.88
2023-02-19T14:58:29.953Z,5.35
2023-02-19T15:00:57.897Z,5.40
2023-02-19T15:03:30.261Z,5.75
2023-02-19T15:06:01.685Z,6.38
2023-02-19T15:08:35.055Z,5.53
2023-02-19T15:11:04.407Z,6.90
2023-02-19T15:13:32.913Z,5.55
2023-02-19T15:16:01.030Z,6.05
2023-02-19T15:18:35.588Z,6.15
2023-02-19T15:21:05.649Z,6.47
2023-02-19T15:23:35.826Z,6.43
2023-02-19T15:26:03.926Z,7.10
2023-02-19T15:28:34.615Z,4.28
2023-02-19T15:31:08.266Z,6.07
2023-02-19T15:33:38.121Z,6.85
2023-02-19T15:36:07.782Z,6.57
2023-02-19T15:38:36.114Z,6.63
2023-02-19T15:41:04.398Z,6.32
2023-02-19T15:43:35.826Z,6.53
2023-02-19T15:46:06.859Z,6.65
2023-02-19T15:48:39.914Z,6.38
2023-02-19T15:51:10.490Z,6.28
2023-02-19T15:53:43.504Z,5.88
2023-02-19T15:56:15.876Z,6.47
2023-02-19T15:58:47.940Z,6.90
2023-02-19T16:01:20.007Z,7.25
2023-02-19T16:06:18.899Z,5.68
2023-02-19T16:09:01.965Z,5.85
2023-02-19T16:11:36.237Z,5.25
2023-02-19T16:14:25.060Z,6.00
2023-02-19T16:16:55.007Z,6.68
2023-02-19T16:19:29.475Z,5.43
2023-02-19T16:21:57.885Z,6.10
2023-02-19T16:24:31.300Z,5.97
2023-02-19T16:26:59.677Z,6.57
2023-02-19T16:29:29.667Z,6.25
2023-02-19T16:31:59.465Z,6.82
2023-02-19T16:34:34.559Z,7.30
2023-02-19T16:37:03.932Z,6.22
2023-02-19T16:39:32.548Z,6.47
2023-02-19T16:42:19.265Z,6.40
2023-02-19T16:44:48.648Z,6.55
2023-02-19T16:47:33.589Z,8.55
2023-02-19T16:50:05.797Z,7.50
2023-02-19T16:52:33.741Z,6.40
2023-02-19T16:55:02.044Z,6.78
2023-02-19T16:57:29.936Z,7.60
2023-02-19T16:59:58.269Z,7.75
2023-02-19T17:02:26.779Z,8.32
2023-02-19T17:04:55.653Z,10.25
2023-02-19T17:07:27.392Z,9.35
2023-02-19T17:09:55.697Z,9.68
2023-02-19T17:12:24.217Z,10.05
2023-02-19T17:14:52.460Z,9.75
2023-02-19T17:17:20.380Z,9.30
2023-02-19T17:19:48.617Z,7.53
2023-02-19T17:22:17.686Z,8.00
2023-02-19T17:24:48.227Z,8.38
2023-02-19T17:27:16.127Z,8.52
2023-02-19T17:29:44.505Z,9.40
2023-02-19T17:32:14.403Z,9.32
2023-02-19T17:34:42.750Z,11.07
2023-02-19T17:37:10.695Z,10.23
2023-02-19T17:39:38.887Z,9.85
2023-02-19T17:42:08.350Z,9.52
2023-02-19T17:44:36.503Z,8.70
2023-02-19T17:47:04.505Z,8.00
2023-02-19T17:49:32.752Z,10.32
2023-02-19T17:52:00.682Z,9.05
2023-02-19T17:54:28.869Z,9.70
2023-02-19T17:56:56.846Z,8.63
2023-02-19T17:59:26.444Z,8.50
2023-02-19T18:01:55.100Z,9.18
2023-02-19T18:04:23.328Z,9.70
2023-02-19T18:06:53.477Z,10.13
2023-02-19T18:09:22.921Z,10.75
2023-02-19T18:11:50.845Z,10.88
2023-02-19T18:14:19.144Z,10.77
2023-02-19T18:16:50.385Z,9.50
2023-02-19T18:19:19.099Z,10.63
2023-02-19T18:21:47.046Z,7.85
2023-02-19T18:24:15.879Z,9.07
2023-02-19T18:26:43.830Z,9.77
2023-02-19T18:29:12.170Z,9.70
2023-02-19T18:31:40.186Z,10.73
2023-02-19T18:34:17.759Z,9.65
2023-02-19T18:36:46.685Z,9.65
2023-02-19T18:39:15.148Z,9.98
2023-02-19T18:41:45.566Z,10.88
2023-02-19T18:44:13.806Z,11.68
2023-02-19T18:46:41.714Z,11.23
2023-02-19T18:49:11.444Z,10.40
2023-02-19T18:51:39.487Z,10.05
2023-02-19T18:54:07.891Z,11.50
2023-02-19T18:56:42.074Z,13.07
2023-02-19T18:59:10.418Z,10.82
2023-02-19T19:01:38.437Z,12.05
2023-02-19T19:04:06.945Z,11.48
2023-02-19T19:06:36.718Z,10.38
2023-02-19T19:09:05.297Z,9.52
2023-02-19T19:11:33.340Z,8.77
2023-02-19T19:14:01.572Z,8.50
2023-02-19T19:16:30.401Z,6.47
2023-02-19T19:18:58.813Z,7.32
2023-02-19T19:21:27.126Z,7.18
2023-02-19T19:23:56.638Z,6.50
2023-02-19T19:26:24.565Z,7.00
2023-02-19T19:28:52.809Z,6.50
2023-02-19T19:31:21.933Z,7.88
2023-02-19T19:33:50.508Z,7.43
2023-02-19T19:36:21.156Z,7.05
2023-02-19T19:38:49.737Z,8.05
2023-02-19T19:41:20.542Z,9.10
2023-02-19T19:43:48.718Z,8.38
2023-02-19T19:46:19.802Z,9.20
2023-02-19T19:48:48.560Z,8.73
2023-02-19T19:51:16.616Z,4.68
2023-02-19T19:53:47.861Z,6.63
2023-02-19T19:56:16.134Z,6.45
2023-02-19T19:58:45.653Z,7.95
2023-02-19T20:01:14.979Z,5.93
2023-02-19T20:03:43.381Z,7.40
2023-02-19T20:06:11.488Z,7.53
2023-02-19T20:08:39.678Z,8.35
2023-02-19T20:11:07.767Z,6.82
2023-02-19T20:13:35.969Z,8.45
2023-02-19T20:16:06.038Z,6.75
2023-02-19T20:18:35.671Z,6.57
2023-02-19T20:21:04.019Z,6.78
2023-02-19T20:23:33.289Z,7.68
2023-02-19T20:26:01.258Z,7.95
2023-02-19T20:28:29.461Z,8.55
2023-02-19T20:30:57.490Z,7.38
2023-02-19T20:33:27.140Z,5.05
2023-02-19T20:35:56.881Z,8.85
2023-02-19T20:38:25.124Z,8.45
2023-02-19T20:40:53.159Z,7.28
2023-02-19T20:43:21.368Z,6.38
2023-02-19T20:45:49.624Z,9.10
2023-02-19T20:48:18.038Z,8.07
2023-02-19T20:50:47.456Z,8.52
2023-02-19T20:53:15.814Z,9.10
2023-02-19T20:55:43.848Z,9.15
2023-02-19T20:58:12.168Z,8.40
2023-02-19T21:00:40.063Z,9.18
2023-02-19T21:03:08.971Z,8.73
2023-02-19T21:05:37.805Z,9.55
2023-02-19T21:08:07.643Z,9.02
2023-02-19T21:10:35.599Z,9.35
2023-02-19T21:13:03.794Z,9.98
2023-02-19T21:15:31.767Z,11.32
2023-02-19T21:17:59.946Z,10.77
2023-02-19T21:20:27.950Z,10.95
2023-02-19T21:22:56.145Z,9.73
2023-02-19T21:25:25.538Z,9.07
2023-02-19T21:27:53.998Z,9.18
2023-02-19T21:30:21.970Z,9.18
2023-02-19T21:32:50.189Z,10.32
2023-02-19T21:35:18.178Z,10.13
2023-02-19T21:37:46.337Z,7.93
2023-02-19T21:40:14.974Z,9.45
2023-02-19T21:42:44.592Z,10.40
2023-02-19T21:45:12.509Z,11.15
2023-02-19T21:47:40.693Z,10.88
2023-02-19T21:50:09.551Z,11.68
2023-02-19T21:52:37.759Z,9.73
2023-02-19T21:55:06.255Z,11.35
2023-02-19T21:57:34.487Z,9.00
2023-02-19T22:00:05.380Z,11.65
2023-02-19T22:02:34.388Z,10.25
2023-02-19T22:05:02.958Z,9.88
2023-02-19T22:07:31.469Z,12.30
2023-02-19T22:09:59.408Z,10.88
2023-02-19T22:12:27.706Z,11.40
2023-02-19T22:14:55.647Z,11.65
2023-02-19T22:17:25.195Z,11.30
2023-02-19T22:19:53.281Z,11.10
2023-02-19T22:22:21.422Z,12.35
2023-02-19T22:24:49.340Z,10.55
2023-02-19T22:27:17.625Z,10.80
2023-02-19T22:29:45.561Z,10.93
2023-02-19T22:32:13.841Z,10.85
2023-02-19T22:34:43.203Z,8.70
2023-02-19T22:37:11.802Z,11.30
2023-02-19T22:39:39.726Z,8.98
2023-02-19T22:42:08.088Z,8.65
2023-02-19T22:44:35.992Z,9.73
2023-02-19T22:47:04.331Z,9.20
2023-02-19T22:49:32.511Z,9.70
2023-02-19T22:52:05.002Z,10.52
2023-02-19T22:54:33.113Z,7.47
2023-02-19T22:57:01.545Z,10.93
2023-02-19T22:59:29.463Z,9.23
2023-02-19T23:01:57.918Z,9.43
2023-02-19T23:04:26.608Z,10.85
2023-02-19T23:06:54.855Z,10.63
2023-02-19T23:09:25.935Z,8.75
2023-02-19T23:11:55.159Z,7.88
2023-02-19T23:14:24.346Z,10.75
2023-02-19T23:16:52.587Z,8.57
2023-02-19T23:19:20.532Z,8.95
2023-02-19T23:21:48.823Z,9.88
2023-02-19T23:24:17.278Z,9.15
2023-02-19T23:26:48.577Z,9.95
2023-02-19T23:29:17.433Z,10.05
2023-02-19T23:31:46.145Z,8.50
2023-02-19T23:34:14.179Z,6.68
2023-02-19T23:36:42.423Z,7.80
2023-02-19T23:39:11.788Z,9.88
2023-02-19T23:41:40.155Z,10.32
2023-02-19T23:44:09.439Z,6.18
2023-02-19T23:46:37.734Z,9.90
2023-02-19T23:49:05.925Z,11.15
2023-02-19T23:51:34.215Z,10.75
2023-02-19T23:54:02.556Z,8.40
2023-02-19T23:56:30.881Z,9.23
2023-02-19T23:58:58.968Z,9.93
